Aeroporto :
LOGIN :

Iscrizione | Disclaimer

   EN    FR    IT 

 










Sommario :    VFR   VFR Marginale   IFR   IFR Intensivo   IFR Molto Intensivo
Visibilità : 
Base nubi : 
>= 8 km
>= 3000ft
5 / 8 km
1000 / 3000 ft
1500m / 5 km
500 / 1000 ft
800 / 1500m
200 / 500 ft
< 800m
< 200 ft
Simboli :   Temporali  Nebbia  Neve Forte  Precipitazioni Forti  Vento > 20 kt
SIGMETs :   Varie  Temporali  Ghiacco  Turbolenza  Onda orograficha  Ceneri Vulcaniche






- Altitudine del aeroporto : 170 ft
- Codice IATA : BGO


ENBR - Bergen , Flesland

ULTIMO METAR :
  • 090620Z 33007KT 9999 VCSH FEW015 BKN050 03/01 Q1023 NOSIG RMK WIND 1200FT 32022KT

METARs OBSOLETI :
  • 090550Z 35007KT 9999 VCSH FEW015 BKN050 03/00 Q1023 NOSIG RMK WIND 1200FT 33019KT
  • 090520Z 33011KT 300V360 9999 FEW020 BKN050 04/01 Q1023 NOSIG RMK WIND 1200FT 32022KT
  • 090450Z 32010KT 9999 FEW020 BKN050 04/00 Q1022 NOSIG RMK WIND 1200FT 32024KT
  • 090420Z 33009KT 9999 FEW026 BKN049 04/00 Q1022 NOSIG RMK WIND 1200FT 32021KT
  • 090350Z 33014KT 9999 FEW026 BKN047 04/00 Q1022 RMK WIND 1200FT 33023KT

TAF TAF ENBR
Valido dal 09 a 06 ore il 10 a 06 ore UTC


0906/1006 32012KT 9999 BKN035
BECMG 0917/0920 VRB05KT



MetMap, La meteo Aeronautica in un colpo d'occhio ! - Copyright ORBIFLY Dicembre 2007 - Disclaimer

ORBIFLY MET'MAP TEAM :

Programmazione e sviluppo : Alexandra Zaïnal
Concezione : Baudouin d'Aumeries
Aiuto per la programmazione : Marc-Olivier Méhu
Supporto tecnico e logistico : Manuel Goepfert
Aiuto per la traduzione : Arnaldo La Scala

Contatto : metmap@orbifly.com




FONTI E CREDITI :

   NOAA